Time;durP1;ratioP1;P1;durP2;ratioP2;P2;SDS_P1;SDS_P2;PMS_P1;PMS_P2;Temp;Humidity;BMP_temperature;BMP_pressure;BME280_temperature;BME280_humidity;BME280_pressure;Samples;Min_cycle;Max_cycle;Signal;HPM_P1;HPM_P2
2023/10/21 00:00:22;;;;;;;11.60;3.33;;;20.80;88.80;;;;;;4957681;28;20054;-80
2023/10/21 00:02:53;;;;;;;16.25;3.25;;;20.80;89.20;;;;;;4944847;28;20054;-78
2023/10/21 00:05:21;;;;;;;10.55;3.08;;;20.80;89.20;;;;;;4955173;28;20292;-79
2023/10/21 00:07:48;;;;;;;14.65;2.70;;;20.90;88.60;;;;;;4960519;28;20112;-79
2023/10/21 00:10:15;;;;;;;11.30;3.35;;;20.90;88.00;;;;;;4953032;28;22103;-79
2023/10/21 00:12:44;;;;;;;10.43;3.63;;;20.90;88.00;;;;;;4959790;28;20047;-77
2023/10/21 00:15:12;;;;;;;15.52;3.10;;;20.90;88.00;;;;;;4942321;28;20124;-81
2023/10/21 00:17:42;;;;;;;9.70;2.75;;;20.90;87.80;;;;;;4945243;28;20054;-83
2023/10/21 00:20:10;;;;;;;11.80;3.85;;;20.90;87.50;;;;;;4959334;28;20617;-81
2023/10/21 00:22:37;;;;;;;11.60;3.63;;;21.00;87.20;;;;;;4943450;28;20575;-79
2023/10/21 00:25:05;;;;;;;11.70;3.65;;;21.00;86.90;;;;;;4944228;28;20497;-79
2023/10/21 00:27:32;;;;;;;13.60;3.60;;;21.10;86.60;;;;;;4944498;28;20410;-79
2023/10/21 00:29:59;;;;;;;8.13;3.13;;;21.00;86.70;;;;;;4921133;28;20992;-78
2023/10/21 00:32:26;;;;;;;15.15;3.13;;;21.00;86.60;;;;;;4943026;28;20181;-78
2023/10/21 00:34:53;;;;;;;8.80;2.42;;;21.00;86.60;;;;;;4943387;28;22224;-80
2023/10/21 00:37:20;;;;;;;11.23;3.33;;;21.00;86.70;;;;;;4938203;28;20411;-79
2023/10/21 00:39:47;;;;;;;11.55;3.78;;;21.00;86.90;;;;;;4942834;28;20052;-79
2023/10/21 00:42:14;;;;;;;12.27;3.55;;;21.00;87.00;;;;;;4928141;28;20050;-79
2023/10/21 00:44:41;;;;;;;11.65;3.55;;;20.90;87.10;;;;;;4941017;28;20517;-79
2023/10/21 00:47:09;;;;;;;12.02;2.75;;;21.00;86.80;;;;;;4946923;28;20050;-81
2023/10/21 00:49:37;;;;;;;17.58;3.20;;;20.90;86.90;;;;;;4953188;28;22201;-79
2023/10/21 00:52:05;;;;;;;17.02;3.10;;;20.90;86.90;;;;;;4926054;28;20103;-79
2023/10/21 00:54:33;;;;;;;16.20;3.65;;;20.80;87.40;;;;;;4942554;28;20419;-79
2023/10/21 00:57:00;;;;;;;8.38;2.63;;;20.80;87.70;;;;;;4962128;28;22140;-79
2023/10/21 00:59:27;;;;;;;13.85;3.50;;;20.90;87.50;;;;;;4957754;28;20054;-77
2023/10/21 01:01:55;;;;;;;14.30;3.67;;;20.90;87.30;;;;;;4950330;28;20452;-78
2023/10/21 01:04:22;;;;;;;14.75;2.63;;;20.90;87.20;;;;;;4943168;28;22213;-79
2023/10/21 01:06:50;;;;;;;18.08;3.50;;;21.00;86.90;;;;;;4949994;28;20168;-79
2023/10/21 01:09:18;;;;;;;11.73;3.60;;;21.00;86.90;;;;;;4947476;28;20046;-79
2023/10/21 01:11:45;;;;;;;13.27;2.92;;;20.90;87.10;;;;;;4950393;28;20687;-79
2023/10/21 01:14:12;;;;;;;13.38;3.05;;;20.90;87.00;;;;;;4946315;28;20169;-79
2023/10/21 01:16:39;;;;;;;15.15;2.78;;;20.90;87.40;;;;;;4947934;28;20042;-80
2023/10/21 01:19:07;;;;;;;10.85;2.72;;;20.80;87.80;;;;;;4968192;28;20046;-77
2023/10/21 01:21:34;;;;;;;9.57;2.53;;;20.80;88.20;;;;;;4957992;28;20810;-78
2023/10/21 01:24:01;;;;;;;10.32;2.88;;;20.80;87.80;;;;;;4938026;28;20051;-79
2023/10/21 01:26:28;;;;;;;11.20;2.10;;;20.80;88.10;;;;;;4955695;28;20687;-78
2023/10/21 01:28:56;;;;;;;13.52;3.40;;;20.90;87.50;;;;;;4939489;28;21979;-79
2023/10/21 01:31:23;;;;;;;14.82;3.42;;;21.00;86.90;;;;;;4942875;28;20198;-78
2023/10/21 01:33:50;;;;;;;11.90;3.55;;;21.00;86.90;;;;;;4936601;28;20050;-79
2023/10/21 01:36:17;;;;;;;10.73;2.83;;;20.90;87.10;;;;;;4938230;28;20046;-78
2023/10/21 01:38:45;;;;;;;11.02;4.10;;;20.80;87.50;;;;;;4938485;28;20502;-78
2023/10/21 01:41:13;;;;;;;13.50;3.58;;;20.80;87.60;;;;;;4973823;28;20563;-80
2023/10/21 01:43:40;;;;;;;11.57;3.20;;;20.80;87.80;;;;;;4955832;28;23729;-80
2023/10/21 01:46:07;;;;;;;10.45;2.42;;;20.80;87.90;;;;;;4941006;28;20057;-80
2023/10/21 01:48:34;;;;;;;6.32;2.22;;;20.80;88.10;;;;;;4934693;28;20050;-78
2023/10/21 01:51:05;;;;;;;11.88;2.85;;;20.80;88.40;;;;;;4925560;28;20069;-79
2023/10/21 01:53:32;;;;;;;9.73;2.80;;;20.80;88.30;;;;;;4935255;28;22176;-79
2023/10/21 01:56:03;;;;;;;10.52;2.58;;;20.80;88.20;;;;;;4958991;28;22203;-79
2023/10/21 01:58:31;;;;;;;12.02;3.20;;;20.80;88.40;;;;;;4952869;28;20090;-79
2023/10/21 02:01:06;;;;;;;10.38;1.80;;;20.80;88.60;;;;;;4941049;28;20462;-79
2023/10/21 02:03:33;;;;;;;14.73;2.55;;;20.70;88.80;;;;;;4969385;28;20050;-78
2023/10/21 02:06:06;;;;;;;8.73;2.42;;;20.70;88.70;;;;;;4971313;28;22225;-79
2023/10/21 02:08:34;;;;;;;10.25;2.45;;;20.70;89.30;;;;;;4935079;28;20046;-81
2023/10/21 02:11:02;;;;;;;12.52;3.00;;;20.70;89.20;;;;;;4957180;28;20140;-79
2023/10/21 02:13:29;;;;;;;11.82;3.17;;;20.70;89.00;;;;;;4937687;28;20043;-79
2023/10/21 02:15:57;;;;;;;13.88;2.70;;;20.70;89.00;;;;;;4956521;28;20843;-79
2023/10/21 02:18:25;;;;;;;8.35;1.98;;;20.70;89.20;;;;;;4940560;28;20050;-79
2023/10/21 02:20:52;;;;;;;13.55;2.90;;;20.70;89.60;;;;;;4954911;28;20065;-79
2023/10/21 02:23:19;;;;;;;9.82;2.67;;;20.60;89.60;;;;;;4936496;28;20532;-79
2023/10/21 02:25:46;;;;;;;14.18;2.95;;;20.60;89.90;;;;;;4950649;28;20121;-79
2023/10/21 02:28:13;;;;;;;15.98;3.63;;;20.50;90.00;;;;;;4949559;28;20039;-79
2023/10/21 02:30:42;;;;;;;13.00;3.70;;;20.60;90.00;;;;;;4940412;28;20077;-79
2023/10/21 02:33:09;;;;;;;16.33;3.45;;;20.60;90.10;;;;;;4950985;28;20043;-79
2023/10/21 02:35:36;;;;;;;17.58;3.80;;;20.50;90.00;;;;;;4922673;28;20077;-79
2023/10/21 02:38:04;;;;;;;12.93;2.95;;;20.50;90.10;;;;;;4939380;28;20191;-79
2023/10/21 02:40:31;;;;;;;19.75;3.42;;;20.50;90.20;;;;;;4941528;28;20050;-79
2023/10/21 02:42:58;;;;;;;12.32;3.63;;;20.60;90.10;;;;;;4956363;28;21201;-80
2023/10/21 02:45:26;;;;;;;15.13;3.45;;;20.50;90.20;;;;;;4953336;28;20139;-79
2023/10/21 02:47:53;;;;;;;14.48;2.88;;;20.50;90.20;;;;;;4943042;28;20584;-79
2023/10/21 02:50:21;;;;;;;12.15;2.90;;;20.40;90.60;;;;;;4942086;28;20133;-79
2023/10/21 02:52:50;;;;;;;9.18;2.20;;;20.50;90.40;;;;;;4942133;28;22156;-79
2023/10/21 02:55:17;;;;;;;10.73;2.28;;;20.50;90.70;;;;;;4942882;28;20050;-79
2023/10/21 02:57:44;;;;;;;11.90;3.17;;;20.40;90.60;;;;;;4935016;28;20090;-80
2023/10/21 03:00:21;;;;;;;13.93;3.05;;;20.50;90.30;;;;;;4958913;28;20287;-80
2023/10/21 03:02:48;;;;;;;13.88;2.72;;;20.50;90.50;;;;;;4942117;28;20405;-79
2023/10/21 03:05:16;;;;;;;12.85;2.55;;;20.40;90.60;;;;;;4971326;28;20050;-79
2023/10/21 03:07:44;;;;;;;11.45;2.70;;;20.40;90.60;;;;;;4939781;28;20080;-76
2023/10/21 03:10:12;;;;;;;15.55;2.28;;;20.40;90.80;;;;;;4934272;28;20047;-80
2023/10/21 03:12:39;;;;;;;9.82;2.47;;;20.40;90.70;;;;;;4947719;28;20165;-79
2023/10/21 03:15:10;;;;;;;14.00;3.25;;;20.40;90.70;;;;;;4943167;28;20262;-78
2023/10/21 03:17:37;;;;;;;13.00;2.90;;;20.40;90.80;;;;;;4936462;28;20046;-78
2023/10/21 03:20:06;;;;;;;7.68;2.75;;;20.40;90.90;;;;;;4960295;28;20046;-78
2023/10/21 03:22:34;;;;;;;11.68;3.08;;;20.30;90.90;;;;;;4951796;28;21053;-79
2023/10/21 03:25:02;;;;;;;10.18;2.40;;;20.30;91.10;;;;;;4959499;28;20581;-79
2023/10/21 03:27:29;;;;;;;11.57;2.78;;;20.30;91.20;;;;;;4958055;28;21106;-80
2023/10/21 03:29:56;;;;;;;10.98;2.88;;;20.30;91.30;;;;;;4959120;28;20053;-79
2023/10/21 03:32:23;;;;;;;12.25;2.85;;;20.20;91.40;;;;;;4932968;28;20053;-79
2023/10/21 03:34:50;;;;;;;14.95;3.40;;;20.20;91.50;;;;;;4940281;28;20139;-80
2023/10/21 03:37:17;;;;;;;9.70;2.60;;;20.20;91.60;;;;;;4943538;28;20915;-81
2023/10/21 03:39:44;;;;;;;14.93;3.28;;;20.20;91.70;;;;;;4943412;28;20124;-78
2023/10/21 03:42:11;;;;;;;15.20;2.85;;;20.10;91.70;;;;;;4940681;28;20054;-79
2023/10/21 03:44:39;;;;;;;9.32;2.70;;;20.10;91.70;;;;;;4939833;28;20050;-79
2023/10/21 03:47:06;;;;;;;7.75;2.75;;;20.10;91.60;;;;;;4978330;28;20763;-80
2023/10/21 03:49:33;;;;;;;10.57;3.35;;;20.10;92.00;;;;;;4941734;28;20076;-79
2023/10/21 03:52:00;;;;;;;14.75;3.67;;;20.00;92.10;;;;;;4956856;28;20058;-78
2023/10/21 03:54:27;;;;;;;12.30;2.95;;;20.10;92.00;;;;;;4953706;28;20637;-79
2023/10/21 03:56:54;;;;;;;5.50;2.42;;;20.10;92.10;;;;;;4942869;28;20062;-80
2023/10/21 03:59:21;;;;;;;16.00;3.35;;;20.00;92.10;;;;;;4956884;28;20129;-80
2023/10/21 04:01:48;;;;;;;9.82;2.90;;;20.00;92.40;;;;;;4951530;28;20065;-81
2023/10/21 04:04:16;;;;;;;14.05;3.13;;;20.00;92.50;;;;;;4925115;28;20608;-79
2023/10/21 04:06:43;;;;;;;12.02;3.58;;;20.00;92.60;;;;;;4944057;28;20847;-79
2023/10/21 04:09:11;;;;;;;8.43;2.38;;;20.00;92.40;;;;;;4945035;28;20738;-79
2023/10/21 04:11:39;;;;;;;12.45;2.75;;;20.00;92.70;;;;;;4937587;28;20042;-79
2023/10/21 04:14:06;;;;;;;13.10;3.00;;;20.00;92.70;;;;;;4933425;28;20122;-80
2023/10/21 04:16:33;;;;;;;12.98;2.70;;;20.00;92.50;;;;;;4935211;28;22094;-82
2023/10/21 04:19:01;;;;;;;13.07;2.90;;;20.00;92.60;;;;;;4942705;28;22605;-79
2023/10/21 04:21:28;;;;;;;13.20;3.60;;;20.00;92.70;;;;;;4950682;28;20912;-78
2023/10/21 04:23:55;;;;;;;10.52;2.67;;;20.10;92.80;;;;;;4952291;28;20254;-79
2023/10/21 04:26:22;;;;;;;14.43;2.70;;;20.10;92.70;;;;;;4961518;28;21125;-79
2023/10/21 04:28:50;;;;;;;13.57;3.03;;;20.20;92.80;;;;;;4959238;28;22157;-79
2023/10/21 04:31:17;;;;;;;15.73;3.53;;;20.20;92.80;;;;;;4943449;28;20421;-79
2023/10/21 04:33:45;;;;;;;12.88;2.70;;;20.10;92.80;;;;;;4955925;28;20042;-79
2023/10/21 04:36:17;;;;;;;10.05;2.80;;;20.10;93.10;;;;;;4936846;28;20058;-80
2023/10/21 04:38:45;;;;;;;10.57;2.22;;;20.20;93.50;;;;;;4942016;28;20263;-80
2023/10/21 04:41:12;;;;;;;11.60;3.25;;;20.20;93.50;;;;;;4963206;28;20490;-80
2023/10/21 04:43:39;;;;;;;16.63;3.28;;;20.10;93.70;;;;;;4941355;28;20149;-80
2023/10/21 04:46:06;;;;;;;14.45;3.25;;;20.20;94.10;;;;;;4953542;28;20050;-80
2023/10/21 04:48:33;;;;;;;11.90;2.03;;;20.20;94.80;;;;;;4953760;28;22085;-80
2023/10/21 04:51:00;;;;;;;11.55;2.45;;;20.10;95.60;;;;;;4944788;28;20536;-81
2023/10/21 04:53:30;;;;;;;9.40;1.80;;;20.10;96.50;;;;;;4955145;28;20169;-79
2023/10/21 04:55:57;;;;;;;8.45;1.60;;;20.10;97.90;;;;;;4928473;28;20093;-79
2023/10/21 04:58:24;;;;;;;8.85;1.00;;;20.10;99.30;;;;;;4959467;28;20066;-80
2023/10/21 05:00:51;;;;;;;7.03;0.90;;;20.00;99.90;;;;;;4942353;28;20046;-79
2023/10/21 05:03:18;;;;;;;3.50;0.85;;;20.10;99.90;;;;;;4950996;28;22171;-80
2023/10/21 05:05:46;;;;;;;5.93;0.70;;;20.00;99.90;;;;;;4923685;28;20077;-78
2023/10/21 05:08:13;;;;;;;5.60;0.65;;;20.00;99.90;;;;;;4925617;28;22258;-79
2023/10/21 05:10:40;;;;;;;5.47;0.38;;;19.90;99.90;;;;;;4940949;28;20693;-79
2023/10/21 05:13:07;;;;;;;7.20;0.43;;;19.80;99.90;;;;;;4941674;28;22958;-80
2023/10/21 05:15:36;;;;;;;5.22;0.68;;;19.60;99.90;;;;;;4961549;28;20055;-79
2023/10/21 05:18:03;;;;;;;3.85;0.30;;;19.50;99.90;;;;;;4952775;28;20046;-79
2023/10/21 05:20:31;;;;;;;3.60;0.63;;;19.40;99.90;;;;;;4938363;28;20387;-79
2023/10/21 05:22:58;;;;;;;9.23;1.30;;;19.40;99.90;;;;;;4944625;28;20629;-80
2023/10/21 05:25:25;;;;;;;8.40;0.60;;;19.30;99.90;;;;;;4942612;28;20054;-79
2023/10/21 05:27:52;;;;;;;6.22;0.75;;;19.30;99.90;;;;;;4953498;28;20063;-79
2023/10/21 05:30:19;;;;;;;3.92;0.60;;;19.30;99.90;;;;;;4943871;28;20042;-78
2023/10/21 05:32:46;;;;;;;5.20;1.05;;;19.20;99.90;;;;;;4957908;28;20237;-80
2023/10/21 05:35:14;;;;;;;7.82;0.80;;;19.10;99.90;;;;;;4949224;28;20057;-80
2023/10/21 05:37:41;;;;;;;6.03;0.60;;;19.10;99.90;;;;;;4935640;28;20709;-77
2023/10/21 05:40:09;;;;;;;9.10;0.60;;;19.10;99.90;;;;;;4957494;28;20051;-81
2023/10/21 05:42:36;;;;;;;8.77;1.40;;;19.10;99.90;;;;;;4955067;28;20663;-80
2023/10/21 05:45:04;;;;;;;3.60;0.30;;;19.10;99.90;;;;;;4940126;28;20776;-79
2023/10/21 05:47:31;;;;;;;4.40;0.52;;;19.10;99.90;;;;;;4954542;28;20135;-79
2023/10/21 05:49:58;;;;;;;7.28;0.50;;;19.00;99.90;;;;;;4938614;28;20528;-79
2023/10/21 05:52:25;;;;;;;4.03;0.30;;;19.10;99.90;;;;;;4967529;28;20054;-80
2023/10/21 05:54:52;;;;;;;4.38;0.45;;;19.10;99.90;;;;;;4958722;28;20062;-80
2023/10/21 05:57:19;;;;;;;4.15;0.68;;;19.10;99.90;;;;;;4952695;28;20093;-80
2023/10/21 05:59:47;;;;;;;4.30;0.40;;;19.00;99.90;;;;;;4926168;28;20185;-80
2023/10/21 06:02:14;;;;;;;7.63;1.10;;;19.00;99.90;;;;;;4965116;28;20536;-80
2023/10/21 06:04:41;;;;;;;6.00;0.55;;;19.00;99.90;;;;;;4954608;28;22088;-81
2023/10/21 06:07:08;;;;;;;6.03;1.80;;;19.00;99.90;;;;;;4944216;28;20042;-80
2023/10/21 06:09:35;;;;;;;5.82;0.45;;;19.00;99.90;;;;;;4937870;28;20105;-80
2023/10/21 06:12:02;;;;;;;6.63;0.50;;;19.00;99.90;;;;;;4938438;28;20107;-82
2023/10/21 06:14:29;;;;;;;5.32;0.40;;;18.90;99.90;;;;;;4933650;28;20073;-81
2023/10/21 06:16:56;;;;;;;4.93;0.50;;;18.90;99.90;;;;;;4973724;28;20058;-81
2023/10/21 06:19:24;;;;;;;2.63;0.25;;;18.90;99.90;;;;;;4960346;28;20051;-81
2023/10/21 06:21:51;;;;;;;3.50;0.40;;;18.90;99.90;;;;;;4950933;28;20081;-80
2023/10/21 06:24:18;;;;;;;5.35;0.40;;;18.90;99.90;;;;;;4943153;28;20058;-81
2023/10/21 06:26:45;;;;;;;4.85;0.30;;;18.90;99.90;;;;;;4961763;28;20058;-82
2023/10/21 06:29:12;;;;;;;4.88;0.50;;;18.90;99.90;;;;;;4945784;28;20067;-83
2023/10/21 06:31:39;;;;;;;4.38;0.60;;;18.80;99.90;;;;;;4962409;28;20047;-82
2023/10/21 06:34:06;;;;;;;7.90;0.60;;;18.80;99.90;;;;;;4945524;28;20073;-81
2023/10/21 06:36:34;;;;;;;3.40;0.40;;;18.90;99.90;;;;;;4945541;28;20502;-83
2023/10/21 06:39:01;;;;;;;5.45;0.40;;;18.90;99.90;;;;;;4942477;28;20057;-81
2023/10/21 06:41:28;;;;;;;5.10;0.45;;;18.80;99.90;;;;;;4959659;28;20143;-84
2023/10/21 06:43:57;;;;;;;5.95;0.50;;;18.90;99.90;;;;;;4950301;28;20050;-84
2023/10/21 06:46:24;;;;;;;5.95;0.52;;;18.80;99.90;;;;;;4937297;28;20596;-82
2023/10/21 06:48:53;;;;;;;5.22;1.15;;;18.80;99.90;;;;;;4940144;28;20073;-82
2023/10/21 06:51:20;;;;;;;6.95;1.10;;;18.80;99.90;;;;;;4948194;28;20417;-82
2023/10/21 06:53:47;;;;;;;7.18;0.98;;;18.80;99.90;;;;;;4931921;28;20054;-82
2023/10/21 06:56:14;;;;;;;5.78;0.68;;;18.80;99.90;;;;;;4977701;28;20132;-84
2023/10/21 06:58:44;;;;;;;6.15;0.73;;;18.70;99.90;;;;;;4955924;28;20057;-82
2023/10/21 07:01:12;;;;;;;4.93;0.45;;;18.80;99.90;;;;;;4962879;28;20184;-83
2023/10/21 07:03:39;;;;;;;5.43;0.52;;;18.80;99.90;;;;;;4960952;28;20054;-82
2023/10/21 07:06:07;;;;;;;6.88;1.75;;;18.80;99.90;;;;;;4960188;28;20053;-81
2023/10/21 07:08:34;;;;;;;5.47;1.52;;;18.80;99.90;;;;;;4939563;28;20058;-81
2023/10/21 07:11:02;;;;;;;6.90;0.98;;;18.90;99.90;;;;;;4964665;28;22382;-82
2023/10/21 07:13:30;;;;;;;6.47;1.00;;;18.90;99.90;;;;;;4961370;28;20057;-81
2023/10/21 07:16:10;;;;;;;6.65;0.90;;;18.90;99.90;;;;;;4964373;28;20050;-81
2023/10/21 07:18:37;;;;;;;4.72;0.95;;;18.90;99.90;;;;;;4950581;28;20046;-81
2023/10/21 07:21:05;;;;;;;7.90;1.08;;;18.90;99.90;;;;;;4973322;28;20096;-77
2023/10/21 07:23:32;;;;;;;6.63;0.80;;;18.90;99.90;;;;;;4962845;28;20085;-81
2023/10/21 07:26:00;;;;;;;5.57;0.85;;;18.80;99.90;;;;;;4958126;28;20103;-78
2023/10/21 07:28:27;;;;;;;5.45;0.65;;;18.80;99.90;;;;;;4968185;28;20060;-80
2023/10/21 07:30:54;;;;;;;4.60;0.60;;;18.80;99.90;;;;;;4958767;28;20039;-80
2023/10/21 07:33:21;;;;;;;5.28;0.82;;;18.80;99.90;;;;;;4980395;28;20065;-80
2023/10/21 07:35:52;;;;;;;5.15;0.57;;;18.80;99.90;;;;;;4947391;28;20192;-79
2023/10/21 07:38:20;;;;;;;6.50;0.68;;;18.80;99.90;;;;;;4939517;28;20057;-81
2023/10/21 07:40:48;;;;;;;7.93;0.85;;;18.80;99.90;;;;;;4962624;28;20058;-84
2023/10/21 07:43:18;;;;;;;5.07;0.50;;;18.90;99.90;;;;;;4938266;28;20160;-82
2023/10/21 07:45:46;;;;;;;3.85;0.80;;;18.80;99.90;;;;;;4939536;28;20059;-82
2023/10/21 07:48:13;;;;;;;12.35;1.08;;;18.80;99.90;;;;;;4977478;28;20042;-81
2023/10/21 07:50:41;;;;;;;6.72;1.40;;;18.80;99.90;;;;;;4962024;28;20629;-81
2023/10/21 07:53:08;;;;;;;7.05;1.00;;;18.80;99.90;;;;;;4947398;28;20042;-83
2023/10/21 07:55:36;;;;;;;6.63;0.88;;;18.90;99.90;;;;;;4959432;28;20675;-82
2023/10/21 07:58:03;;;;;;;2.78;0.40;;;18.90;99.90;;;;;;4960355;28;20050;-81
2023/10/21 08:00:30;;;;;;;4.10;0.43;;;18.90;99.90;;;;;;4959406;28;20465;-81
2023/10/21 08:02:58;;;;;;;4.70;0.80;;;18.90;99.90;;;;;;4942449;28;20058;-81
2023/10/21 08:05:27;;;;;;;6.03;0.43;;;18.90;99.90;;;;;;4957195;28;20182;-81
2023/10/21 08:07:55;;;;;;;8.32;0.57;;;18.90;99.90;;;;;;4937505;28;20054;-80
2023/10/21 08:10:22;;;;;;;4.60;0.50;;;18.90;99.90;;;;;;4936626;28;20046;-79
2023/10/21 08:12:50;;;;;;;4.53;0.47;;;18.90;99.90;;;;;;4959584;28;20051;-81
2023/10/21 08:15:17;;;;;;;5.43;0.52;;;18.90;99.90;;;;;;4944149;28;21995;-77
2023/10/21 08:17:44;;;;;;;2.53;0.30;;;18.90;99.90;;;;;;4954075;28;20062;-82
2023/10/21 08:20:12;;;;;;;3.05;0.35;;;18.90;99.90;;;;;;4939283;28;20525;-80
2023/10/21 08:22:39;;;;;;;6.53;0.57;;;18.90;99.90;;;;;;4951982;28;20149;-82
2023/10/21 08:25:08;;;;;;;5.13;0.32;;;18.90;99.90;;;;;;4943196;28;20189;-80
2023/10/21 08:27:36;;;;;;;5.30;0.30;;;19.00;99.90;;;;;;4953632;28;20112;-82
2023/10/21 08:30:09;;;;;;;2.72;0.40;;;19.00;99.90;;;;;;4937392;28;20913;-82
2023/10/21 08:32:37;;;;;;;2.30;0.68;;;19.00;99.90;;;;;;4926280;28;20149;-81
2023/10/21 08:35:04;;;;;;;3.50;0.30;;;19.00;99.90;;;;;;4942472;28;20173;-82
2023/10/21 08:37:32;;;;;;;6.57;0.40;;;19.00;99.90;;;;;;4942037;28;20157;-83
2023/10/21 08:40:07;;;;;;;3.42;0.30;;;19.00;99.90;;;;;;4976274;28;20058;-80
2023/10/21 08:42:34;;;;;;;4.43;0.30;;;19.00;99.90;;;;;;4946675;28;20054;-82
2023/10/21 08:45:22;;;;;;;4.70;0.50;;;19.10;99.90;;;;;;4948764;28;20069;-80
2023/10/21 08:47:49;;;;;;;3.55;0.40;;;19.10;99.90;;;;;;4951849;28;20057;-81
2023/10/21 08:50:17;;;;;;;6.45;1.08;;;19.10;99.90;;;;;;4929761;28;20050;-80
2023/10/21 08:52:47;;;;;;;2.40;0.20;;;19.10;99.90;;;;;;4946678;28;20144;-82
2023/10/21 08:55:15;;;;;;;5.32;0.20;;;19.20;99.90;;;;;;4963127;28;20520;-81
2023/10/21 08:57:42;;;;;;;2.58;0.20;;;19.20;99.90;;;;;;4957818;28;20054;-80
2023/10/21 09:00:10;;;;;;;3.97;0.52;;;19.20;99.90;;;;;;4961102;28;20050;-81
2023/10/21 09:02:38;;;;;;;5.18;0.20;;;19.20;99.90;;;;;;4967181;28;20105;-78
2023/10/21 09:05:12;;;;;;;5.78;0.95;;;19.20;99.90;;;;;;4945712;28;20058;-81
2023/10/21 09:07:49;;;;;;;4.68;0.88;;;19.10;99.90;;;;;;4962999;28;20557;-81
2023/10/21 09:10:17;;;;;;;4.13;0.40;;;19.10;99.90;;;;;;4961708;28;20162;-81
2023/10/21 09:12:48;;;;;;;3.38;0.55;;;19.10;99.90;;;;;;4943776;28;20465;-81
2023/10/21 09:15:15;;;;;;;4.68;0.82;;;19.10;99.90;;;;;;4943764;28;20508;-80
2023/10/21 09:17:45;;;;;;;4.38;0.40;;;19.10;99.90;;;;;;4950999;28;20038;-82
2023/10/21 09:20:13;;;;;;;3.75;0.35;;;19.10;99.90;;;;;;4959182;28;20054;-79
2023/10/21 09:22:44;;;;;;;3.17;0.43;;;19.10;99.90;;;;;;4942188;28;20533;-80
2023/10/21 09:25:20;;;;;;;3.88;0.40;;;19.10;99.90;;;;;;4936596;28;20046;-80
2023/10/21 09:27:53;;;;;;;6.60;0.75;;;19.00;99.90;;;;;;4943766;28;22530;-79
2023/10/21 09:30:26;;;;;;;4.93;0.50;;;19.00;99.90;;;;;;4926980;28;20434;-79
2023/10/21 09:33:03;;;;;;;3.05;0.85;;;19.00;99.90;;;;;;4936742;28;20046;-80
2023/10/21 09:35:31;;;;;;;5.68;0.80;;;19.00;99.90;;;;;;4958621;28;20517;-80
2023/10/21 09:38:18;;;;;;;5.65;1.10;;;19.00;99.90;;;;;;4976341;28;20046;-80
2023/10/21 09:40:46;;;;;;;7.88;1.35;;;19.00;99.90;;;;;;4928081;28;20061;-80
2023/10/21 09:43:13;;;;;;;6.22;0.43;;;19.10;99.90;;;;;;4946119;28;20051;-80
2023/10/21 09:45:45;;;;;;;3.75;0.47;;;19.20;99.90;;;;;;4941113;28;20081;-79
2023/10/21 09:48:18;;;;;;;6.25;1.00;;;19.30;99.90;;;;;;4943234;28;20185;-82
2023/10/21 09:50:53;;;;;;;4.30;0.30;;;19.30;99.90;;;;;;4960098;28;20046;-81
2023/10/21 09:53:25;;;;;;;5.03;0.70;;;19.30;99.90;;;;;;4959890;28;20219;-79
2023/10/21 09:55:55;;;;;;;4.45;1.10;;;19.40;99.90;;;;;;4977596;28;20054;-78
2023/10/21 09:58:26;;;;;;;4.90;0.98;;;19.40;99.90;;;;;;4953070;28;20058;-78
2023/10/21 10:00:55;;;;;;;5.40;0.30;;;19.40;99.90;;;;;;4952594;28;20169;-79
2023/10/21 10:03:24;;;;;;;3.45;0.40;;;19.40;99.90;;;;;;4953092;28;20456;-81
2023/10/21 10:05:51;;;;;;;6.13;0.70;;;19.60;99.90;;;;;;4942356;28;20545;-78
2023/10/21 10:08:18;;;;;;;8.93;1.25;;;19.70;99.90;;;;;;4949783;28;20144;-80
2023/10/21 10:10:48;;;;;;;7.65;1.13;;;19.70;99.90;;;;;;4941214;28;20043;-81
2023/10/21 10:13:15;;;;;;;7.25;0.70;;;19.70;99.90;;;;;;4957055;28;20184;-79
2023/10/21 10:15:42;;;;;;;8.25;0.95;;;19.70;99.90;;;;;;4922535;28;20061;-77
2023/10/21 10:18:18;;;;;;;6.43;0.45;;;19.70;99.90;;;;;;4952629;28;20050;-80
2023/10/21 10:20:51;;;;;;;6.03;0.38;;;19.60;99.90;;;;;;4963758;28;20050;-79
2023/10/21 10:23:19;;;;;;;6.82;0.98;;;19.60;99.90;;;;;;4952837;28;20806;-82
2023/10/21 10:25:52;;;;;;;6.07;0.65;;;19.60;99.90;;;;;;4947245;28;20057;-80
2023/10/21 10:28:26;;;;;;;7.80;0.60;;;19.60;99.90;;;;;;4972495;28;20054;-80
2023/10/21 10:30:56;;;;;;;5.43;0.30;;;19.60;99.90;;;;;;4929741;28;20465;-81
2023/10/21 10:33:34;;;;;;;9.30;1.05;;;19.70;99.90;;;;;;4959727;28;20086;-80
2023/10/21 10:36:12;;;;;;;6.50;0.40;;;19.80;99.90;;;;;;4932429;28;20452;-80
2023/10/21 10:38:47;;;;;;;5.95;0.52;;;20.00;99.90;;;;;;4992908;28;20543;-82
2023/10/21 10:41:18;;;;;;;6.60;0.60;;;20.20;99.90;;;;;;4978230;28;20509;-80
2023/10/21 10:43:56;;;;;;;6.35;0.75;;;20.10;99.90;;;;;;4933263;28;20054;-82
2023/10/21 10:46:24;;;;;;;4.38;0.35;;;20.00;99.90;;;;;;4958662;28;20094;-80
2023/10/21 10:48:52;;;;;;;5.50;0.63;;;20.00;99.90;;;;;;4962027;28;20050;-79
2023/10/21 10:51:21;;;;;;;10.80;1.10;;;19.90;99.90;;;;;;4942386;28;20073;-80
2023/10/21 10:53:59;;;;;;;6.78;0.90;;;20.00;99.90;;;;;;4947853;28;20043;-80
2023/10/21 10:56:43;;;;;;;8.27;0.70;;;20.00;99.90;;;;;;4940444;28;20157;-80
2023/10/21 10:59:19;;;;;;;6.43;0.75;;;20.10;99.90;;;;;;4956786;28;20050;-79
2023/10/21 11:02:08;;;;;;;4.43;0.75;;;20.10;99.90;;;;;;4939984;28;20058;-80
2023/10/21 11:04:35;;;;;;;8.20;0.65;;;20.10;99.90;;;;;;4957793;28;20133;-79
2023/10/21 11:07:03;;;;;;;2.97;0.38;;;20.20;99.90;;;;;;4964256;28;20077;-80
2023/10/21 11:09:30;;;;;;;6.47;1.00;;;20.20;99.90;;;;;;4945494;28;20733;-80
2023/10/21 11:11:58;;;;;;;11.80;1.23;;;20.30;99.90;;;;;;4942209;28;20057;-81
2023/10/21 11:14:38;;;;;;;7.30;0.30;;;20.30;99.90;;;;;;4976170;28;20100;-81
2023/10/21 11:17:05;;;;;;;5.20;0.63;;;20.30;99.90;;;;;;4946630;28;20576;-80
2023/10/21 11:19:32;;;;;;;5.97;0.60;;;20.50;99.90;;;;;;4961356;28;20051;-81
2023/10/21 11:22:00;;;;;;;4.57;0.85;;;20.40;99.90;;;;;;4966181;28;20576;-80
2023/10/21 11:24:30;;;;;;;3.30;0.32;;;20.50;99.90;;;;;;4962119;28;20353;-80
2023/10/21 11:26:59;;;;;;;5.60;0.30;;;20.60;99.90;;;;;;4956287;28;20054;-81
2023/10/21 11:29:26;;;;;;;3.83;0.30;;;20.50;99.90;;;;;;4945652;28;20050;-81
2023/10/21 11:31:57;;;;;;;2.50;0.22;;;20.50;99.90;;;;;;4937946;28;20046;-80
2023/10/21 11:34:28;;;;;;;5.93;0.40;;;20.40;99.90;;;;;;4929301;28;20189;-79
2023/10/21 11:36:56;;;;;;;4.32;1.00;;;20.40;99.90;;;;;;4961543;28;20043;-82
2023/10/21 11:39:24;;;;;;;7.70;0.20;;;20.40;99.90;;;;;;4956796;28;20057;-81
2023/10/21 11:41:55;;;;;;;6.65;0.47;;;20.50;99.90;;;;;;4962505;28;20100;-79
2023/10/21 11:44:27;;;;;;;2.80;0.20;;;20.40;99.90;;;;;;4947215;28;20090;-79
2023/10/21 11:46:58;;;;;;;6.22;0.75;;;20.40;99.90;;;;;;4937673;28;20690;-81
2023/10/21 11:49:26;;;;;;;4.53;0.77;;;20.40;99.90;;;;;;4944549;28;20884;-79
2023/10/21 11:51:55;;;;;;;5.03;0.30;;;20.40;99.90;;;;;;4962845;28;20066;-80
2023/10/21 12:39:57;;;;;;;2.33;0.30;;;19.30;99.90;;;;;;4944100;28;20046;-81
2023/10/21 12:42:35;;;;;;;2.75;0.20;;;19.40;99.90;;;;;;4963931;28;20153;-81
2023/10/21 12:45:11;;;;;;;3.00;0.20;;;19.20;99.90;;;;;;4950382;28;20134;-80
2023/10/21 12:47:43;;;;;;;2.03;0.20;;;19.20;99.90;;;;;;4928041;28;20054;-80
2023/10/21 12:50:13;;;;;;;2.10;0.22;;;19.10;99.90;;;;;;4936832;28;22435;-81
2023/10/21 12:52:40;;;;;;;2.30;0.20;;;19.20;99.90;;;;;;4936884;28;20049;-82
2023/10/21 12:55:10;;;;;;;2.67;0.38;;;19.10;99.90;;;;;;4958802;28;20054;-82
2023/10/21 12:57:39;;;;;;;2.15;0.20;;;19.10;99.90;;;;;;4955229;28;20053;-78
2023/10/21 13:00:07;;;;;;;3.55;0.30;;;19.00;99.90;;;;;;4945306;28;20077;-80
2023/10/21 13:02:35;;;;;;;2.05;0.47;;;19.00;99.90;;;;;;4943271;28;20058;-81
2023/10/21 13:05:07;;;;;;;4.00;0.93;;;19.10;99.90;;;;;;4927954;28;20301;-81
2023/10/21 13:07:34;;;;;;;5.20;1.05;;;19.10;99.90;;;;;;4946264;28;20054;-82
2023/10/21 13:10:03;;;;;;;2.67;0.40;;;19.10;99.90;;;;;;4946864;28;20081;-81
2023/10/21 13:12:30;;;;;;;2.53;0.20;;;19.00;99.90;;;;;;4957824;28;20147;-81
2023/10/21 13:14:57;;;;;;;1.48;0.10;;;19.10;99.90;;;;;;4945905;28;20825;-81
2023/10/21 13:17:24;;;;;;;3.15;0.10;;;19.10;99.90;;;;;;4950588;28;20053;-81
2023/10/21 13:19:51;;;;;;;4.50;0.30;;;19.10;99.90;;;;;;4949741;28;20050;-80
2023/10/21 13:22:20;;;;;;;1.00;0.10;;;19.10;99.90;;;;;;4939630;28;20054;-79
2023/10/21 13:24:48;;;;;;;2.97;0.22;;;19.00;99.90;;;;;;4939554;28;20794;-81
2023/10/21 13:27:36;;;;;;;1.10;0.10;;;19.00;99.90;;;;;;4954400;28;20089;-80
2023/10/21 13:30:10;;;;;;;2.13;0.20;;;19.10;99.90;;;;;;4944421;28;20060;-81
2023/10/21 13:32:38;;;;;;;4.57;0.30;;;19.10;99.90;;;;;;4952719;28;20523;-81
2023/10/21 13:35:09;;;;;;;1.48;0.10;;;19.10;99.90;;;;;;4938812;28;23259;-81